PWSweather.com
Personal Weather Stations
Station Observations
WD4JKH
Forsyth, GA 31029

Forsyth, GA 31029

Lat: 33.033225, Lon: -83.927995

Elevation: 709

Station Type: Davis Vantage VUE

High Low Average
Temperature 88.4°F31.3°C 71.1°F21.7°C 78.5°F25.8°C
Dew Point 76.4°F24.7°C 67.3°F19.6°C 71.2°F21.8°C
Winds 5.1 mph 8.2 kmh Calm Calm 1.0 mph S1.6 kmh S
Wind Gusts 9.0 mph14.5 kmh -- 4.0 mph6.4 kmh
Humidity 94% 55% 79%
Pressure 30.03 in1016.9 mb 29.92 in1013.2 mb -
Precipitation 0.00 in0.0 mm - -
Hour Temp Dew Point Humidity Winds Wind Gusts Pressure Precip Precip Rate Daily Precip Total
12:00 AM 76.6°F24.8°C 65.2°F18.4°C 68% 1.0 mph SE1.6 kmh SE 2.0 mph3.2 kmh 30.03 in1016.9 mb 0.00 in0.0 mm 0.00 in0.0 mm 0.00 in0.0 mm
12:05 AM 76.6°F24.8°C 65.7°F18.7°C 69% 1.6 mph SE2.6 kmh SE 4.0 mph6.4 kmh 30.03 in1016.9 mb 0.00 in0.0 mm 0.00 in0.0 mm 0.00 in0.0 mm
12:10 AM 76.7°F24.8°C 66.0°F18.9°C 69% 2.2 mph ESE3.5 kmh ESE 5.0 mph8.0 kmh 30.03 in1016.9 mb 0.00 in0.0 mm 0.00 in0.0 mm 0.00 in0.0 mm
12:15 AM 76.7°F24.8°C 66.4°F19.1°C 70% 2.8 mph SE4.5 kmh SE 6.0 mph9.7 kmh 30.03 in1016.9 mb 0.00 in0.0 mm 0.00 in0.0 mm 0.00 in0.0 mm
12:20 AM 76.6°F24.8°C 66.7°F19.3°C 71% 4.1 mph SE6.6 kmh SE 6.0 mph9.7 kmh 30.03 in1016.9 mb 0.00 in0.0 mm 0.00 in0.0 mm 0.00 in0.0 mm
12:25 AM 76.4°F24.7°C 66.9°F19.4°C 72% 3.8 mph ESE6.1 kmh ESE 7.0 mph11.3 kmh 30.03 in1016.9 mb 0.00 in0.0 mm 0.00 in0.0 mm 0.00 in0.0 mm
12:30 AM 76.2°F24.6°C 66.7°F19.3°C 72% 2.0 mph ESE3.2 kmh ESE 7.0 mph11.3 kmh 30.03 in1016.9 mb 0.00 in0.0 mm 0.00 in0.0 mm 0.00 in0.0 mm
12:35 AM 76.0°F24.4°C 66.7°F19.3°C 73% 4.4 mph SE7.1 kmh SE 10.0 mph16.1 kmh 30.02 in1016.6 mb 0.00 in0.0 mm 0.00 in0.0 mm 0.00 in0.0 mm
12:40 AM 76.0°F24.4°C 67.1°F19.5°C 74% 3.2 mph SE5.1 kmh SE 10.0 mph16.1 kmh 30.02 in1016.6 mb 0.00 in0.0 mm 0.00 in0.0 mm 0.00 in0.0 mm
12:45 AM 75.9°F24.4°C 67.4°F19.7°C 75% 3.1 mph SE5.0 kmh SE 10.0 mph16.1 kmh 30.02 in1016.6 mb 0.00 in0.0 mm 0.00 in0.0 mm 0.00 in0.0 mm
12:50 AM 75.7°F24.3°C 67.4°F19.7°C 75% 2.8 mph SE4.5 kmh SE 10.0 mph16.1 kmh 30.02 in1016.6 mb 0.00 in0.0 mm 0.00 in0.0 mm 0.00 in0.0 mm
12:55 AM 75.5°F24.2°C 67.6°F19.8°C 76% 2.2 mph ESE3.5 kmh ESE 8.0 mph12.9 kmh 30.03 in1016.9 mb 0.00 in0.0 mm 0.00 in0.0 mm 0.00 in0.0 mm
01:00 AM 75.4°F24.1°C 67.5°F19.7°C 76% 1.8 mph ESE2.9 kmh ESE 6.0 mph9.7 kmh 30.02 in1016.6 mb 0.00 in0.0 mm 0.00 in0.0 mm 0.00 in0.0 mm
01:05 AM 75.2°F24.0°C 67.3°F19.6°C 76% 2.1 mph SE3.4 kmh SE 6.0 mph9.7 kmh 30.03 in1016.9 mb 0.00 in0.0 mm 0.00 in0.0 mm 0.00 in0.0 mm
01:10 AM 75.1°F23.9°C 67.5°F19.7°C 77% 1.4 mph SE2.3 kmh SE 5.0 mph8.0 kmh 30.02 in1016.6 mb 0.00 in0.0 mm 0.00 in0.0 mm 0.00 in0.0 mm
01:15 AM 74.9°F23.8°C 67.3°F19.6°C 77% 1.5 mph ESE2.4 kmh ESE 5.0 mph8.0 kmh 30.02 in1016.6 mb 0.00 in0.0 mm 0.00 in0.0 mm 0.00 in0.0 mm
01:20 AM 74.8°F23.8°C 67.6°F19.8°C 78% 1.0 mph SE1.6 kmh SE 5.0 mph8.0 kmh 30.02 in1016.6 mb 0.00 in0.0 mm 0.00 in0.0 mm 0.00 in0.0 mm
01:25 AM 74.6°F23.7°C 67.4°F19.7°C 78% 1.8 mph SE2.9 kmh SE 3.0 mph4.8 kmh 30.02 in1016.6 mb 0.00 in0.0 mm 0.00 in0.0 mm 0.00 in0.0 mm
01:30 AM 74.4°F23.6°C 67.6°F19.8°C 79% 1.0 mph SE1.6 kmh SE 3.0 mph4.8 kmh 30.02 in1016.6 mb 0.00 in0.0 mm 0.00 in0.0 mm 0.00 in0.0 mm
01:35 AM 74.3°F23.5°C 67.5°F19.7°C 79% 2.1 mph ESE3.4 kmh ESE 5.0 mph8.0 kmh 30.02 in1016.6 mb 0.00 in0.0 mm 0.00 in0.0 mm 0.00 in0.0 mm
01:40 AM 74.2°F23.4°C 67.6°F19.8°C 80% 1.8 mph SE2.9 kmh SE 5.0 mph8.0 kmh 30.01 in1016.3 mb 0.00 in0.0 mm 0.00 in0.0 mm 0.00 in0.0 mm
01:45 AM 74.1°F23.4°C 67.5°F19.7°C 80% 1.8 mph SE2.9 kmh SE 5.0 mph8.0 kmh 30.01 in1016.3 mb 0.00 in0.0 mm 0.00 in0.0 mm 0.00 in0.0 mm
01:50 AM 73.9°F23.3°C 67.3°F19.6°C 80% 1.1 mph SE1.8 kmh SE 5.0 mph8.0 kmh 30.00 in1015.9 mb 0.00 in0.0 mm 0.00 in0.0 mm 0.00 in0.0 mm
01:55 AM 73.9°F23.3°C 67.7°F19.8°C 81% 1.7 mph SE2.7 kmh SE 3.0 mph4.8 kmh 30.00 in1015.9 mb 0.00 in0.0 mm 0.00 in0.0 mm 0.00 in0.0 mm
02:00 AM 73.8°F23.2°C 67.7°F19.8°C 81% 1.0 mph SE1.6 kmh SE 3.0 mph4.8 kmh 30.00 in1015.9 mb 0.00 in0.0 mm 0.00 in0.0 mm 0.00 in0.0 mm
02:05 AM 73.8°F23.2°C 68.0°F20.0°C 82% 1.1 mph SE1.8 kmh SE 3.0 mph4.8 kmh 30.00 in1015.9 mb 0.00 in0.0 mm 0.00 in0.0 mm 0.00 in0.0 mm
02:10 AM 73.8°F23.2°C 68.0°F20.0°C 82% 1.3 mph SE2.1 kmh SE 3.0 mph4.8 kmh 30.00 in1015.9 mb 0.00 in0.0 mm 0.00 in0.0 mm 0.00 in0.0 mm
02:15 AM 73.8°F23.2°C 68.4°F20.2°C 83% 1.3 mph E2.1 kmh E 2.0 mph3.2 kmh 30.00 in1015.9 mb 0.00 in0.0 mm 0.00 in0.0 mm 0.00 in0.0 mm
02:19 AM 73.8°F23.2°C 68.4°F20.2°C 83% 1.0 mph SSE1.6 kmh SSE 4.0 mph6.4 kmh 30.00 in1015.9 mb 0.00 in0.0 mm 0.00 in0.0 mm 0.00 in0.0 mm
02:24 AM 73.8°F23.2°C 68.4°F20.2°C 83% 1.0 mph SE1.6 kmh SE 4.0 mph6.4 kmh 29.99 in1015.6 mb 0.00 in0.0 mm 0.00 in0.0 mm 0.00 in0.0 mm
02:29 AM 73.9°F23.3°C 68.8°F20.4°C 84% 1.1 mph SE1.8 kmh SE 5.0 mph8.0 kmh 29.99 in1015.6 mb 0.00 in0.0 mm 0.00 in0.0 mm 0.00 in0.0 mm
02:34 AM 73.9°F23.3°C 68.8°F20.4°C 84% 1.0 mph SSE1.6 kmh SSE 5.0 mph8.0 kmh 29.99 in1015.6 mb 0.00 in0.0 mm 0.00 in0.0 mm 0.00 in0.0 mm
02:39 AM 73.9°F23.3°C 69.1°F20.6°C 85% 1.0 mph SE1.6 kmh SE 5.0 mph8.0 kmh 29.99 in1015.6 mb 0.00 in0.0 mm 0.00 in0.0 mm 0.00 in0.0 mm
02:44 AM 73.9°F23.3°C 69.1°F20.6°C 85% Calm Calm 3.0 mph4.8 kmh 29.99 in1015.6 mb 0.00 in0.0 mm 0.00 in0.0 mm 0.00 in0.0 mm
02:49 AM 73.8°F23.2°C 69.0°F20.6°C 85% Calm Calm 3.0 mph4.8 kmh 29.99 in1015.6 mb 0.00 in0.0 mm 0.00 in0.0 mm 0.00 in0.0 mm
02:54 AM 73.8°F23.2°C 69.4°F20.8°C 86% Calm Calm 3.0 mph4.8 kmh 29.99 in1015.6 mb 0.00 in0.0 mm 0.00 in0.0 mm 0.00 in0.0 mm
02:59 AM 73.6°F23.1°C 69.2°F20.7°C 86% Calm Calm 2.0 mph3.2 kmh 29.99 in1015.6 mb 0.00 in0.0 mm 0.00 in0.0 mm 0.00 in0.0 mm
03:04 AM 73.6°F23.1°C 69.2°F20.7°C 86% Calm Calm 1.0 mph1.6 kmh 30.00 in1015.9 mb 0.00 in0.0 mm 0.00 in0.0 mm 0.00 in0.0 mm
03:09 AM 73.5°F23.1°C 69.4°F20.8°C 87% 1.0 mph SE1.6 kmh SE 1.0 mph1.6 kmh 30.00 in1015.9 mb 0.00 in0.0 mm 0.00 in0.0 mm 0.00 in0.0 mm
03:14 AM 73.4°F23.0°C 69.0°F20.6°C 86% Calm Calm 1.0 mph1.6 kmh 29.99 in1015.6 mb 0.00 in0.0 mm 0.00 in0.0 mm 0.00 in0.0 mm
03:19 AM 73.3°F22.9°C 69.2°F20.7°C 87% Calm Calm 1.0 mph1.6 kmh 29.99 in1015.6 mb 0.00 in0.0 mm 0.00 in0.0 mm 0.00 in0.0 mm
03:24 AM 73.3°F22.9°C 69.2°F20.7°C 87% Calm Calm 1.0 mph1.6 kmh 29.99 in1015.6 mb 0.00 in0.0 mm 0.00 in0.0 mm 0.00 in0.0 mm
03:29 AM 73.2°F22.9°C 69.4°F20.8°C 88% Calm Calm -- 29.99 in1015.6 mb 0.00 in0.0 mm 0.00 in0.0 mm 0.00 in0.0 mm
03:34 AM 73.1°F22.8°C 69.3°F20.7°C 88% Calm Calm -- 29.99 in1015.6 mb 0.00 in0.0 mm 0.00 in0.0 mm 0.00 in0.0 mm
03:39 AM 72.9°F22.7°C 69.1°F20.6°C 88% Calm Calm -- 29.99 in1015.6 mb 0.00 in0.0 mm 0.00 in0.0 mm 0.00 in0.0 mm
03:44 AM 72.8°F22.7°C 69.4°F20.8°C 89% Calm Calm -- 29.99 in1015.6 mb 0.00 in0.0 mm 0.00 in0.0 mm 0.00 in0.0 mm
03:49 AM 72.6°F22.6°C 69.2°F20.7°C 89% Calm Calm -- 29.99 in1015.6 mb 0.00 in0.0 mm 0.00 in0.0 mm 0.00 in0.0 mm
03:54 AM 72.5°F22.5°C 69.1°F20.6°C 89% Calm Calm -- 29.99 in1015.6 mb 0.00 in0.0 mm 0.00 in0.0 mm 0.00 in0.0 mm
03:59 AM 72.4°F22.4°C 69.3°F20.7°C 90% Calm Calm -- 29.99 in1015.6 mb 0.00 in0.0 mm 0.00 in0.0 mm 0.00 in0.0 mm
04:04 AM 72.4°F22.4°C 69.3°F20.7°C 90% Calm Calm -- 29.99 in1015.6 mb 0.00 in0.0 mm 0.00 in0.0 mm 0.00 in0.0 mm
04:09 AM 72.3°F22.4°C 69.2°F20.7°C 90% Calm Calm -- 29.99 in1015.6 mb 0.00 in0.0 mm 0.00 in0.0 mm 0.00 in0.0 mm
04:14 AM 72.1°F22.3°C 69.3°F20.7°C 91% Calm Calm -- 29.99 in1015.6 mb 0.00 in0.0 mm 0.00 in0.0 mm 0.00 in0.0 mm
04:19 AM 72.1°F22.3°C 69.3°F20.7°C 91% Calm Calm -- 29.99 in1015.6 mb 0.00 in0.0 mm 0.00 in0.0 mm 0.00 in0.0 mm
04:24 AM 72.0°F22.2°C 69.2°F20.7°C 91% Calm Calm -- 29.99 in1015.6 mb 0.00 in0.0 mm 0.00 in0.0 mm 0.00 in0.0 mm
04:29 AM 72.0°F22.2°C 69.2°F20.7°C 91% Calm Calm -- 29.99 in1015.6 mb 0.00 in0.0 mm 0.00 in0.0 mm 0.00 in0.0 mm
04:34 AM 72.0°F22.2°C 69.2°F20.7°C 91% 1.0 mph SE1.6 kmh SE 1.0 mph1.6 kmh 29.98 in1015.2 mb 0.00 in0.0 mm 0.00 in0.0 mm 0.00 in0.0 mm
04:39 AM 72.0°F22.2°C 69.2°F20.7°C 91% Calm Calm 1.0 mph1.6 kmh 29.98 in1015.2 mb 0.00 in0.0 mm 0.00 in0.0 mm 0.00 in0.0 mm
04:44 AM 72.0°F22.2°C 69.2°F20.7°C 91% Calm Calm 1.0 mph1.6 kmh 29.98 in1015.2 mb 0.00 in0.0 mm 0.00 in0.0 mm 0.00 in0.0 mm
04:49 AM 71.9°F22.2°C 69.4°F20.8°C 92% Calm Calm 1.0 mph1.6 kmh 29.98 in1015.2 mb 0.00 in0.0 mm 0.00 in0.0 mm 0.00 in0.0 mm
04:54 AM 71.8°F22.1°C 69.3°F20.7°C 92% 1.0 mph SE1.6 kmh SE 1.0 mph1.6 kmh 29.98 in1015.2 mb 0.00 in0.0 mm 0.00 in0.0 mm 0.00 in0.0 mm
04:59 AM 71.7°F22.1°C 69.2°F20.7°C 92% Calm Calm 1.0 mph1.6 kmh 29.98 in1015.2 mb 0.00 in0.0 mm 0.00 in0.0 mm 0.00 in0.0 mm
05:04 AM 71.6°F22.0°C 69.1°F20.6°C 92% Calm Calm 1.0 mph1.6 kmh 29.98 in1015.2 mb 0.00 in0.0 mm 0.00 in0.0 mm 0.00 in0.0 mm
05:09 AM 71.6°F22.0°C 69.4°F20.8°C 93% Calm Calm 1.0 mph1.6 kmh 29.98 in1015.2 mb 0.00 in0.0 mm 0.00 in0.0 mm 0.00 in0.0 mm
05:14 AM 71.6°F22.0°C 69.4°F20.8°C 93% Calm Calm 1.0 mph1.6 kmh 29.98 in1015.2 mb 0.00 in0.0 mm 0.00 in0.0 mm 0.00 in0.0 mm
05:19 AM 71.6°F22.0°C 69.4°F20.8°C 93% Calm Calm 1.0 mph1.6 kmh 29.98 in1015.2 mb 0.00 in0.0 mm 0.00 in0.0 mm 0.00 in0.0 mm
05:24 AM 71.6°F22.0°C 69.8°F21.0°C 94% Calm Calm 1.0 mph1.6 kmh 29.98 in1015.2 mb 0.00 in0.0 mm 0.00 in0.0 mm 0.00 in0.0 mm
05:29 AM 71.5°F21.9°C 69.3°F20.7°C 93% Calm Calm 1.0 mph1.6 kmh 29.98 in1015.2 mb 0.00 in0.0 mm 0.00 in0.0 mm 0.00 in0.0 mm
05:34 AM 71.4°F21.9°C 69.6°F20.9°C 94% Calm Calm 1.0 mph1.6 kmh 29.98 in1015.2 mb 0.00 in0.0 mm 0.00 in0.0 mm 0.00 in0.0 mm
05:39 AM 71.4°F21.9°C 69.6°F20.9°C 94% Calm Calm 1.0 mph1.6 kmh 29.98 in1015.2 mb 0.00 in0.0 mm 0.00 in0.0 mm 0.00 in0.0 mm
05:44 AM 71.4°F21.9°C 69.6°F20.9°C 94% 1.0 mph SE1.6 kmh SE 1.0 mph1.6 kmh 29.98 in1015.2 mb 0.00 in0.0 mm 0.00 in0.0 mm 0.00 in0.0 mm
05:49 AM 71.4°F21.9°C 69.6°F20.9°C 94% 1.0 mph SE1.6 kmh SE 1.0 mph1.6 kmh 29.98 in1015.2 mb 0.00 in0.0 mm 0.00 in0.0 mm 0.00 in0.0 mm
05:54 AM 71.4°F21.9°C 69.6°F20.9°C 94% Calm Calm 1.0 mph1.6 kmh 29.98 in1015.2 mb 0.00 in0.0 mm 0.00 in0.0 mm 0.00 in0.0 mm
05:59 AM 71.4°F21.9°C 69.6°F20.9°C 94% 1.0 mph ESE1.6 kmh ESE 1.0 mph1.6 kmh 29.98 in1015.2 mb 0.00 in0.0 mm 0.00 in0.0 mm 0.00 in0.0 mm
06:04 AM 71.4°F21.9°C 69.6°F20.9°C 94% 1.0 mph ESE1.6 kmh ESE 1.0 mph1.6 kmh 29.98 in1015.2 mb 0.00 in0.0 mm 0.00 in0.0 mm 0.00 in0.0 mm
06:09 AM 71.2°F21.8°C 69.4°F20.8°C 94% Calm Calm 1.0 mph1.6 kmh 29.98 in1015.2 mb 0.00 in0.0 mm 0.00 in0.0 mm 0.00 in0.0 mm
06:14 AM 71.2°F21.8°C 69.4°F20.8°C 94% Calm Calm 1.0 mph1.6 kmh 29.99 in1015.6 mb 0.00 in0.0 mm 0.00 in0.0 mm 0.00 in0.0 mm
06:19 AM 71.1°F21.7°C 69.3°F20.7°C 94% 1.0 mph ESE1.6 kmh ESE 1.0 mph1.6 kmh 29.99 in1015.6 mb 0.00 in0.0 mm 0.00 in0.0 mm 0.00 in0.0 mm
06:24 AM 71.1°F21.7°C 69.3°F20.7°C 94% Calm Calm 1.0 mph1.6 kmh 29.99 in1015.6 mb 0.00 in0.0 mm 0.00 in0.0 mm 0.00 in0.0 mm
06:29 AM 71.1°F21.7°C 69.3°F20.7°C 94% Calm Calm 1.0 mph1.6 kmh 29.99 in1015.6 mb 0.00 in0.0 mm 0.00 in0.0 mm 0.00 in0.0 mm
06:34 AM 71.2°F21.8°C 69.4°F20.8°C 94% Calm Calm 1.0 mph1.6 kmh 30.00 in1015.9 mb 0.00 in0.0 mm 0.00 in0.0 mm 0.00 in0.0 mm
06:39 AM 71.1°F21.7°C 69.3°F20.7°C 94% Calm Calm -- 30.00 in1015.9 mb 0.00 in0.0 mm 0.00 in0.0 mm 0.00 in0.0 mm
06:44 AM 71.1°F21.7°C 69.3°F20.7°C 94% Calm Calm -- 30.00 in1015.9 mb 0.00 in0.0 mm 0.00 in0.0 mm 0.00 in0.0 mm
06:49 AM 71.1°F21.7°C 69.3°F20.7°C 94% Calm Calm -- 30.00 in1015.9 mb 0.00 in0.0 mm 0.00 in0.0 mm 0.00 in0.0 mm
06:54 AM 71.3°F21.8°C 69.5°F20.8°C 94% Calm Calm -- 30.00 in1015.9 mb 0.00 in0.0 mm 0.00 in0.0 mm 0.00 in0.0 mm
06:59 AM 71.3°F21.8°C 69.5°F20.8°C 94% 1.0 mph SE1.6 kmh SE 1.0 mph1.6 kmh 30.00 in1015.9 mb 0.00 in0.0 mm 0.00 in0.0 mm 0.00 in0.0 mm
07:04 AM 71.3°F21.8°C 69.5°F20.8°C 94% Calm Calm 1.0 mph1.6 kmh 30.00 in1015.9 mb 0.00 in0.0 mm 0.00 in0.0 mm 0.00 in0.0 mm
07:09 AM 71.4°F21.9°C 69.6°F20.9°C 94% Calm Calm 1.0 mph1.6 kmh 30.00 in1015.9 mb 0.00 in0.0 mm 0.00 in0.0 mm 0.00 in0.0 mm
07:14 AM 71.4°F21.9°C 69.6°F20.9°C 94% Calm Calm 1.0 mph1.6 kmh 30.00 in1015.9 mb 0.00 in0.0 mm 0.00 in0.0 mm 0.00 in0.0 mm
07:19 AM 71.5°F21.9°C 69.7°F20.9°C 94% 1.0 mph ESE1.6 kmh ESE 1.0 mph1.6 kmh 30.00 in1015.9 mb 0.00 in0.0 mm 0.00 in0.0 mm 0.00 in0.0 mm
07:24 AM 71.6°F22.0°C 69.8°F21.0°C 94% 1.0 mph SE1.6 kmh SE 1.0 mph1.6 kmh 30.00 in1015.9 mb 0.00 in0.0 mm 0.00 in0.0 mm 0.00 in0.0 mm
07:29 AM 71.9°F22.2°C 70.0°F21.1°C 94% 1.0 mph SE1.6 kmh SE 1.0 mph1.6 kmh 30.00 in1015.9 mb 0.00 in0.0 mm 0.00 in0.0 mm 0.00 in0.0 mm
07:34 AM 72.4°F22.4°C 70.6°F21.4°C 94% Calm Calm 1.0 mph1.6 kmh 30.00 in1015.9 mb 0.00 in0.0 mm 0.00 in0.0 mm 0.00 in0.0 mm
07:39 AM 72.7°F22.6°C 70.9°F21.6°C 94% 1.0 mph SE1.6 kmh SE 2.0 mph3.2 kmh 30.00 in1015.9 mb 0.00 in0.0 mm 0.00 in0.0 mm 0.00 in0.0 mm
07:44 AM 72.9°F22.7°C 70.7°F21.5°C 93% 1.5 mph SE2.4 kmh SE 3.0 mph4.8 kmh 30.00 in1015.9 mb 0.00 in0.0 mm 0.00 in0.0 mm 0.00 in0.0 mm
07:49 AM 73.0°F22.8°C 70.8°F21.6°C 93% 1.4 mph SE2.3 kmh SE 3.0 mph4.8 kmh 29.99 in1015.6 mb 0.00 in0.0 mm 0.00 in0.0 mm 0.00 in0.0 mm
07:54 AM 73.1°F22.8°C 70.9°F21.6°C 93% 2.2 mph SE3.5 kmh SE 3.0 mph4.8 kmh 30.00 in1015.9 mb 0.00 in0.0 mm 0.00 in0.0 mm 0.00 in0.0 mm
07:59 AM 73.3°F22.9°C 71.1°F21.7°C 93% 1.1 mph ESE1.8 kmh ESE 3.0 mph4.8 kmh 29.99 in1015.6 mb 0.00 in0.0 mm 0.00 in0.0 mm 0.00 in0.0 mm
08:04 AM 73.3°F22.9°C 70.8°F21.6°C 92% 2.0 mph SE3.2 kmh SE 4.0 mph6.4 kmh 29.99 in1015.6 mb 0.00 in0.0 mm 0.00 in0.0 mm 0.00 in0.0 mm
08:09 AM 73.3°F22.9°C 70.8°F21.6°C 92% 1.7 mph SE2.7 kmh SE 4.0 mph6.4 kmh 30.00 in1015.9 mb 0.00 in0.0 mm 0.00 in0.0 mm 0.00 in0.0 mm
08:13 AM 73.5°F23.1°C 71.0°F21.7°C 92% 1.0 mph ESE1.6 kmh ESE 4.0 mph6.4 kmh 30.00 in1015.9 mb 0.00 in0.0 mm 0.00 in0.0 mm 0.00 in0.0 mm
08:18 AM 73.7°F23.2°C 71.2°F21.8°C 92% 1.0 mph E1.6 kmh E 4.0 mph6.4 kmh 30.00 in1015.9 mb 0.00 in0.0 mm 0.00 in0.0 mm 0.00 in0.0 mm
08:23 AM 73.9°F23.3°C 71.1°F21.7°C 91% Calm Calm 3.0 mph4.8 kmh 30.00 in1015.9 mb 0.00 in0.0 mm 0.00 in0.0 mm 0.00 in0.0 mm
08:28 AM 74.1°F23.4°C 71.3°F21.8°C 91% Calm Calm 2.0 mph3.2 kmh 30.00 in1015.9 mb 0.00 in0.0 mm 0.00 in0.0 mm 0.00 in0.0 mm
08:33 AM 74.4°F23.6°C 71.3°F21.8°C 90% Calm Calm 2.0 mph3.2 kmh 30.00 in1015.9 mb 0.00 in0.0 mm 0.00 in0.0 mm 0.00 in0.0 mm
08:38 AM 74.7°F23.7°C 71.6°F22.0°C 90% 1.0 mph SW1.6 kmh SW 1.0 mph1.6 kmh 30.00 in1015.9 mb 0.00 in0.0 mm 0.00 in0.0 mm 0.00 in0.0 mm
08:43 AM 74.9°F23.8°C 71.4°F21.9°C 89% 1.0 mph SW1.6 kmh SW 1.0 mph1.6 kmh 30.01 in1016.3 mb 0.00 in0.0 mm 0.00 in0.0 mm 0.00 in0.0 mm
08:48 AM 75.2°F24.0°C 71.4°F21.9°C 88% 1.0 mph SE1.6 kmh SE 1.0 mph1.6 kmh 30.01 in1016.3 mb 0.00 in0.0 mm 0.00 in0.0 mm 0.00 in0.0 mm
08:53 AM 75.3°F24.1°C 71.2°F21.8°C 87% Calm Calm 1.0 mph1.6 kmh 30.01 in1016.3 mb 0.00 in0.0 mm 0.00 in0.0 mm 0.00 in0.0 mm
08:58 AM 75.4°F24.1°C 71.3°F21.8°C 87% Calm Calm 4.0 mph6.4 kmh 30.00 in1015.9 mb 0.00 in0.0 mm 0.00 in0.0 mm 0.00 in0.0 mm
09:03 AM 75.7°F24.3°C 71.6°F22.0°C 87% 1.2 mph SW1.9 kmh SW 4.0 mph6.4 kmh 30.01 in1016.3 mb 0.00 in0.0 mm 0.00 in0.0 mm 0.00 in0.0 mm
09:08 AM 75.6°F24.2°C 71.5°F21.9°C 87% 1.3 mph SW2.1 kmh SW 5.0 mph8.0 kmh 30.01 in1016.3 mb 0.00 in0.0 mm 0.00 in0.0 mm 0.00 in0.0 mm
09:13 AM 75.9°F24.4°C 71.4°F21.9°C 86% 1.3 mph SW2.1 kmh SW 5.0 mph8.0 kmh 30.01 in1016.3 mb 0.00 in0.0 mm 0.00 in0.0 mm 0.00 in0.0 mm
09:18 AM 76.1°F24.5°C 71.6°F22.0°C 86% Calm Calm 5.0 mph8.0 kmh 30.00 in1015.9 mb 0.00 in0.0 mm 0.00 in0.0 mm 0.00 in0.0 mm
09:23 AM 76.4°F24.7°C 71.6°F22.0°C 85% Calm Calm 5.0 mph8.0 kmh 30.00 in1015.9 mb 0.00 in0.0 mm 0.00 in0.0 mm 0.00 in0.0 mm
09:28 AM 76.7°F24.8°C 71.9°F22.2°C 85% 1.4 mph SW2.3 kmh SW 3.0 mph4.8 kmh 30.00 in1015.9 mb 0.00 in0.0 mm 0.00 in0.0 mm 0.00 in0.0 mm
09:33 AM 76.8°F24.9°C 72.0°F22.2°C 85% 1.7 mph SW2.7 kmh SW 3.0 mph4.8 kmh 30.00 in1015.9 mb 0.00 in0.0 mm 0.00 in0.0 mm 0.00 in0.0 mm
09:38 AM 77.2°F25.1°C 72.4°F22.4°C 85% 1.0 mph SE1.6 kmh SE 3.0 mph4.8 kmh 30.00 in1015.9 mb 0.00 in0.0 mm 0.00 in0.0 mm 0.00 in0.0 mm
09:43 AM 77.6°F25.3°C 72.4°F22.4°C 84% 1.4 mph SSW2.3 kmh SSW 3.0 mph4.8 kmh 30.00 in1015.9 mb 0.00 in0.0 mm 0.00 in0.0 mm 0.00 in0.0 mm
09:48 AM 77.7°F25.4°C 72.5°F22.5°C 84% 1.0 mph SW1.6 kmh SW 3.0 mph4.8 kmh 30.00 in1015.9 mb 0.00 in0.0 mm 0.00 in0.0 mm 0.00 in0.0 mm
09:53 AM 77.9°F25.5°C 72.3°F22.4°C 83% Calm Calm 3.0 mph4.8 kmh 30.00 in1015.9 mb 0.00 in0.0 mm 0.00 in0.0 mm 0.00 in0.0 mm
09:58 AM 78.0°F25.6°C 72.4°F22.4°C 83% 1.4 mph SW2.3 kmh SW 3.0 mph4.8 kmh 30.00 in1015.9 mb 0.00 in0.0 mm 0.00 in0.0 mm 0.00 in0.0 mm
10:03 AM 78.1°F25.6°C 72.2°F22.3°C 82% 1.3 mph WNW2.1 kmh WNW 2.0 mph3.2 kmh 30.00 in1015.9 mb 0.00 in0.0 mm 0.00 in0.0 mm 0.00 in0.0 mm
10:08 AM 78.1°F25.6°C 72.6°F22.6°C 83% 1.3 mph WSW2.1 kmh WSW 3.0 mph4.8 kmh 30.00 in1015.9 mb 0.00 in0.0 mm 0.00 in0.0 mm 0.00 in0.0 mm
10:13 AM 78.4°F25.8°C 72.9°F22.7°C 83% 1.6 mph WSW2.6 kmh WSW 3.0 mph4.8 kmh 30.00 in1015.9 mb 0.00 in0.0 mm 0.00 in0.0 mm 0.00 in0.0 mm
10:18 AM 78.4°F25.8°C 72.5°F22.5°C 82% 1.4 mph SW2.3 kmh SW 3.0 mph4.8 kmh 30.00 in1015.9 mb 0.00 in0.0 mm 0.00 in0.0 mm 0.00 in0.0 mm
10:23 AM 78.5°F25.8°C 72.6°F22.6°C 82% 2.7 mph SW4.3 kmh SW 5.0 mph8.0 kmh 30.00 in1015.9 mb 0.00 in0.0 mm 0.00 in0.0 mm 0.00 in0.0 mm
10:28 AM 78.5°F25.8°C 73.0°F22.8°C 83% Calm Calm 5.0 mph8.0 kmh 30.00 in1015.9 mb 0.00 in0.0 mm 0.00 in0.0 mm 0.00 in0.0 mm
10:33 AM 79.0°F26.1°C 73.1°F22.8°C 82% Calm Calm 5.0 mph8.0 kmh 29.99 in1015.6 mb 0.00 in0.0 mm 0.00 in0.0 mm 0.00 in0.0 mm
10:38 AM 79.2°F26.2°C 72.9°F22.7°C 81% 1.9 mph SW3.1 kmh SW 5.0 mph8.0 kmh 29.99 in1015.6 mb 0.00 in0.0 mm 0.00 in0.0 mm 0.00 in0.0 mm
10:43 AM 79.3°F26.3°C 73.0°F22.8°C 81% 1.4 mph E2.3 kmh E 3.0 mph4.8 kmh 29.99 in1015.6 mb 0.00 in0.0 mm 0.00 in0.0 mm 0.00 in0.0 mm
10:48 AM 79.5°F26.4°C 72.9°F22.7°C 80% 1.4 mph SE2.3 kmh SE 3.0 mph4.8 kmh 29.99 in1015.6 mb 0.00 in0.0 mm 0.00 in0.0 mm 0.00 in0.0 mm
10:53 AM 79.6°F26.4°C 73.4°F23.0°C 81% 1.3 mph SW2.1 kmh SW 3.0 mph4.8 kmh 29.99 in1015.6 mb 0.00 in0.0 mm 0.00 in0.0 mm 0.00 in0.0 mm
10:58 AM 79.7°F26.5°C 73.1°F22.8°C 80% 1.3 mph SW2.1 kmh SW 2.0 mph3.2 kmh 29.99 in1015.6 mb 0.00 in0.0 mm 0.00 in0.0 mm 0.00 in0.0 mm
11:03 AM 80.1°F26.7°C 73.8°F23.2°C 81% 1.0 mph S1.6 kmh S 2.0 mph3.2 kmh 29.99 in1015.6 mb 0.00 in0.0 mm 0.00 in0.0 mm 0.00 in0.0 mm
11:08 AM 80.6°F27.0°C 73.6°F23.1°C 79% Calm Calm 2.0 mph3.2 kmh 29.99 in1015.6 mb 0.00 in0.0 mm 0.00 in0.0 mm 0.00 in0.0 mm
11:13 AM 80.7°F27.1°C 73.7°F23.2°C 79% 1.0 mph SW1.6 kmh SW 2.0 mph3.2 kmh 29.99 in1015.6 mb 0.00 in0.0 mm 0.00 in0.0 mm 0.00 in0.0 mm
11:18 AM 80.9°F27.2°C 73.9°F23.3°C 79% Calm Calm 2.0 mph3.2 kmh 30.00 in1015.9 mb 0.00 in0.0 mm 0.00 in0.0 mm 0.00 in0.0 mm
11:23 AM 81.1°F27.3°C 73.7°F23.2°C 78% Calm Calm 2.0 mph3.2 kmh 30.00 in1015.9 mb 0.00 in0.0 mm 0.00 in0.0 mm 0.00 in0.0 mm
11:28 AM 81.1°F27.3°C 73.4°F23.0°C 77% Calm Calm 2.0 mph3.2 kmh 30.00 in1015.9 mb 0.00 in0.0 mm 0.00 in0.0 mm 0.00 in0.0 mm
11:33 AM 81.4°F27.4°C 73.1°F22.8°C 76% 1.0 mph SW1.6 kmh SW 1.0 mph1.6 kmh 30.00 in1015.9 mb 0.00 in0.0 mm 0.00 in0.0 mm 0.00 in0.0 mm
11:38 AM 81.9°F27.7°C 73.8°F23.2°C 76% 1.0 mph SW1.6 kmh SW 1.0 mph1.6 kmh 30.00 in1015.9 mb 0.00 in0.0 mm 0.00 in0.0 mm 0.00 in0.0 mm
11:43 AM 82.4°F28.0°C 73.9°F23.3°C 75% 1.0 mph SW1.6 kmh SW 1.0 mph1.6 kmh 30.00 in1015.9 mb 0.00 in0.0 mm 0.00 in0.0 mm 0.00 in0.0 mm
11:48 AM 82.7°F28.2°C 74.2°F23.4°C 75% 1.0 mph WSW1.6 kmh WSW 2.0 mph3.2 kmh 30.00 in1015.9 mb 0.00 in0.0 mm 0.00 in0.0 mm 0.00 in0.0 mm
11:53 AM 83.2°F28.4°C 74.3°F23.5°C 74% Calm Calm 2.0 mph3.2 kmh 30.00 in1015.9 mb 0.00 in0.0 mm 0.00 in0.0 mm 0.00 in0.0 mm
11:58 AM 83.6°F28.7°C 74.0°F23.3°C 73% 2.4 mph SW3.9 kmh SW 4.0 mph6.4 kmh 30.00 in1015.9 mb 0.00 in0.0 mm 0.00 in0.0 mm 0.00 in0.0 mm
12:03 PM 83.8°F28.8°C 74.4°F23.6°C 73% Calm Calm 4.0 mph6.4 kmh 30.00 in1015.9 mb 0.00 in0.0 mm 0.00 in0.0 mm 0.00 in0.0 mm
12:08 PM 84.4°F29.1°C 74.4°F23.6°C 72% 1.0 mph W1.6 kmh W 4.0 mph6.4 kmh 30.00 in1015.9 mb 0.00 in0.0 mm 0.00 in0.0 mm 0.00 in0.0 mm
12:13 PM 84.2°F29.0°C 74.0°F23.3°C 71% 1.2 mph WSW1.9 kmh WSW 4.0 mph6.4 kmh 30.00 in1015.9 mb 0.00 in0.0 mm 0.00 in0.0 mm 0.00 in0.0 mm
12:18 PM 84.3°F29.1°C 74.1°F23.4°C 71% 1.0 mph SW1.6 kmh SW 2.0 mph3.2 kmh 30.00 in1015.9 mb 0.00 in0.0 mm 0.00 in0.0 mm 0.00 in0.0 mm
12:23 PM 84.6°F29.2°C 74.2°F23.4°C 71% 1.2 mph NE1.9 kmh NE 2.0 mph3.2 kmh 29.99 in1015.6 mb 0.00 in0.0 mm 0.00 in0.0 mm 0.00 in0.0 mm
12:28 PM 85.2°F29.6°C 74.6°F23.7°C 70% 1.0 mph NE1.6 kmh NE 3.0 mph4.8 kmh 29.99 in1015.6 mb 0.00 in0.0 mm 0.00 in0.0 mm 0.00 in0.0 mm
12:33 PM 85.3°F29.6°C 73.8°F23.2°C 68% 1.4 mph SW2.3 kmh SW 3.0 mph4.8 kmh 29.99 in1015.6 mb 0.00 in0.0 mm 0.00 in0.0 mm 0.00 in0.0 mm
12:38 PM 85.5°F29.7°C 74.2°F23.4°C 69% 1.0 mph SE1.6 kmh SE 3.0 mph4.8 kmh 29.99 in1015.6 mb 0.00 in0.0 mm 0.00 in0.0 mm 0.00 in0.0 mm
12:43 PM 85.3°F29.6°C 73.4°F23.0°C 67% 2.7 mph W4.3 kmh W 5.0 mph8.0 kmh 29.99 in1015.6 mb 0.00 in0.0 mm 0.00 in0.0 mm 0.00 in0.0 mm
12:48 PM 85.2°F29.6°C 74.1°F23.4°C 69% 1.0 mph WSW1.6 kmh WSW 5.0 mph8.0 kmh 29.99 in1015.6 mb 0.00 in0.0 mm 0.00 in0.0 mm 0.00 in0.0 mm
12:53 PM 85.6°F29.8°C 74.1°F23.4°C 68% 1.1 mph N1.8 kmh N 5.0 mph8.0 kmh 29.98 in1015.2 mb 0.00 in0.0 mm 0.00 in0.0 mm 0.00 in0.0 mm
12:59 PM 86.0°F30.0°C 74.0°F23.3°C 67% 1.2 mph W1.9 kmh W 5.0 mph8.0 kmh 29.98 in1015.2 mb 0.00 in0.0 mm 0.00 in0.0 mm 0.00 in0.0 mm
01:03 PM 85.9°F29.9°C 73.9°F23.3°C 67% 1.0 mph WSW1.6 kmh WSW 3.0 mph4.8 kmh 29.98 in1015.2 mb 0.00 in0.0 mm 0.00 in0.0 mm 0.00 in0.0 mm
01:08 PM 86.2°F30.1°C 73.8°F23.2°C 66% 1.0 mph WSW1.6 kmh WSW 3.0 mph4.8 kmh 29.98 in1015.2 mb 0.00 in0.0 mm 0.00 in0.0 mm 0.00 in0.0 mm
01:14 PM 86.3°F30.2°C 74.3°F23.5°C 67% 1.4 mph SW2.3 kmh SW 2.0 mph3.2 kmh 29.98 in1015.2 mb 0.00 in0.0 mm 0.00 in0.0 mm 0.00 in0.0 mm
01:18 PM 85.9°F29.9°C 74.4°F23.6°C 68% 1.2 mph SW1.9 kmh SW 3.0 mph4.8 kmh 29.98 in1015.2 mb 0.00 in0.0 mm 0.00 in0.0 mm 0.00 in0.0 mm
01:24 PM 86.5°F30.3°C 75.0°F23.9°C 68% Calm Calm 3.0 mph4.8 kmh 29.98 in1015.2 mb 0.00 in0.0 mm 0.00 in0.0 mm 0.00 in0.0 mm
01:29 PM 86.9°F30.5°C 74.2°F23.4°C 66% 1.5 mph WSW2.4 kmh WSW 3.0 mph4.8 kmh 29.98 in1015.2 mb 0.00 in0.0 mm 0.00 in0.0 mm 0.00 in0.0 mm
01:34 PM 87.2°F30.7°C 74.3°F23.5°C 65% 1.0 mph W1.6 kmh W 3.0 mph4.8 kmh 29.98 in1015.2 mb 0.00 in0.0 mm 0.00 in0.0 mm 0.00 in0.0 mm
01:39 PM 87.2°F30.7°C 74.5°F23.6°C 66% 1.4 mph WSW2.3 kmh WSW 2.0 mph3.2 kmh 29.98 in1015.2 mb 0.00 in0.0 mm 0.00 in0.0 mm 0.00 in0.0 mm
01:44 PM 87.0°F30.6°C 74.1°F23.4°C 65% 1.0 mph SW1.6 kmh SW 2.0 mph3.2 kmh 29.97 in1014.9 mb 0.00 in0.0 mm 0.00 in0.0 mm 0.00 in0.0 mm
01:49 PM 87.0°F30.6°C 73.8°F23.2°C 65% 1.8 mph S2.9 kmh S 4.0 mph6.4 kmh 29.97 in1014.9 mb 0.00 in0.0 mm 0.00 in0.0 mm 0.00 in0.0 mm
01:54 PM 86.9°F30.5°C 74.5°F23.6°C 66% Calm Calm 4.0 mph6.4 kmh 29.97 in1014.9 mb 0.00 in0.0 mm 0.00 in0.0 mm 0.00 in0.0 mm
01:59 PM 87.0°F30.6°C 74.5°F23.6°C 66% Calm Calm 4.0 mph6.4 kmh 29.97 in1014.9 mb 0.00 in0.0 mm 0.00 in0.0 mm 0.00 in0.0 mm
02:04 PM 87.4°F30.8°C 74.9°F23.8°C 66% Calm Calm 4.0 mph6.4 kmh 29.97 in1014.9 mb 0.00 in0.0 mm 0.00 in0.0 mm 0.00 in0.0 mm
02:09 PM 88.1°F31.2°C 75.6°F24.2°C 66% Calm Calm 2.0 mph3.2 kmh 29.96 in1014.6 mb 0.00 in0.0 mm 0.00 in0.0 mm 0.00 in0.0 mm
02:12 PM 88.0°F31.1°C 75.5°F24.2°C 66% 1.4 mph NE2.3 kmh NE 3.0 mph4.8 kmh 29.96 in1014.6 mb 0.00 in0.0 mm 0.00 in0.0 mm 0.00 in0.0 mm
02:17 PM 87.3°F30.7°C 76.2°F24.6°C 69% 2.0 mph NE3.2 kmh NE 5.0 mph8.0 kmh 29.96 in1014.6 mb 0.00 in0.0 mm 0.00 in0.0 mm 0.00 in0.0 mm
02:22 PM 86.4°F30.2°C 75.9°F24.4°C 71% 2.2 mph NE3.5 kmh NE 5.0 mph8.0 kmh 29.96 in1014.6 mb 0.00 in0.0 mm 0.00 in0.0 mm 0.00 in0.0 mm
02:27 PM 86.1°F30.1°C 76.0°F24.4°C 72% 2.2 mph N3.5 kmh N 7.0 mph11.3 kmh 29.96 in1014.6 mb 0.00 in0.0 mm 0.00 in0.0 mm 0.00 in0.0 mm
02:32 PM 85.8°F29.9°C 76.0°F24.4°C 72% 2.0 mph NE3.2 kmh NE 7.0 mph11.3 kmh 29.95 in1014.2 mb 0.00 in0.0 mm 0.00 in0.0 mm 0.00 in0.0 mm
02:37 PM 85.8°F29.9°C 75.3°F24.1°C 71% 2.6 mph NNW4.2 kmh NNW 7.0 mph11.3 kmh 29.95 in1014.2 mb 0.00 in0.0 mm 0.00 in0.0 mm 0.00 in0.0 mm
02:43 PM 85.8°F29.9°C 76.0°F24.4°C 72% 2.0 mph N3.2 kmh N 9.0 mph14.5 kmh 29.95 in1014.2 mb 0.00 in0.0 mm 0.00 in0.0 mm 0.00 in0.0 mm
02:48 PM 86.3°F30.2°C 76.4°F24.7°C 72% 2.2 mph N3.5 kmh N 9.0 mph14.5 kmh 29.95 in1014.2 mb 0.00 in0.0 mm 0.00 in0.0 mm 0.00 in0.0 mm
02:53 PM 86.2°F30.1°C 75.5°F24.2°C 70% 3.6 mph NW5.8 kmh NW 9.0 mph14.5 kmh 29.95 in1014.2 mb 0.00 in0.0 mm 0.00 in0.0 mm 0.00 in0.0 mm
02:58 PM 86.4°F30.2°C 74.9°F23.8°C 68% 2.3 mph NW3.7 kmh NW 7.0 mph11.3 kmh 29.95 in1014.2 mb 0.00 in0.0 mm 0.00 in0.0 mm 0.00 in0.0 mm
03:03 PM 86.5°F30.3°C 73.6°F23.1°C 65% 3.0 mph WNW4.8 kmh WNW 8.0 mph12.9 kmh 29.95 in1014.2 mb 0.00 in0.0 mm 0.00 in0.0 mm 0.00 in0.0 mm
03:08 PM 86.7°F30.4°C 72.9°F22.7°C 63% 4.3 mph WNW6.9 kmh WNW 9.0 mph14.5 kmh 29.95 in1014.2 mb 0.00 in0.0 mm 0.00 in0.0 mm 0.00 in0.0 mm
03:13 PM 86.8°F30.4°C 71.0°F21.7°C 59% 2.6 mph N4.2 kmh N 9.0 mph14.5 kmh 29.95 in1014.2 mb 0.00 in0.0 mm 0.00 in0.0 mm 0.00 in0.0 mm
03:18 PM 86.9°F30.5°C 69.6°F20.9°C 56% 4.0 mph NW6.4 kmh NW 9.0 mph14.5 kmh 29.94 in1013.9 mb 0.00 in0.0 mm 0.00 in0.0 mm 0.00 in0.0 mm
03:23 PM 86.9°F30.5°C 69.6°F20.9°C 56% 3.0 mph WNW4.8 kmh WNW 9.0 mph14.5 kmh 29.94 in1013.9 mb 0.00 in0.0 mm 0.00 in0.0 mm 0.00 in0.0 mm
03:28 PM 87.1°F30.6°C 70.0°F21.1°C 57% 3.2 mph WNW5.1 kmh WNW 8.0 mph12.9 kmh 29.94 in1013.9 mb 0.00 in0.0 mm 0.00 in0.0 mm 0.00 in0.0 mm
03:33 PM 86.9°F30.5°C 69.6°F20.9°C 56% 5.1 mph NW8.2 kmh NW 9.0 mph14.5 kmh 29.94 in1013.9 mb 0.00 in0.0 mm 0.00 in0.0 mm 0.00 in0.0 mm
03:38 PM 86.6°F30.3°C 70.3°F21.3°C 58% 2.5 mph NNW4.0 kmh NNW 9.0 mph14.5 kmh 29.95 in1014.2 mb 0.00 in0.0 mm 0.00 in0.0 mm 0.00 in0.0 mm
03:43 PM 86.3°F30.2°C 70.0°F21.1°C 58% 2.7 mph NW4.3 kmh NW 9.0 mph14.5 kmh 29.95 in1014.2 mb 0.00 in0.0 mm 0.00 in0.0 mm 0.00 in0.0 mm
03:48 PM 86.3°F30.2°C 70.3°F21.3°C 59% 2.2 mph NW3.5 kmh NW 9.0 mph14.5 kmh 29.95 in1014.2 mb 0.00 in0.0 mm 0.00 in0.0 mm 0.00 in0.0 mm
03:53 PM 86.7°F30.4°C 70.9°F21.6°C 59% 1.8 mph NNW2.9 kmh NNW 7.0 mph11.3 kmh 29.95 in1014.2 mb 0.00 in0.0 mm 0.00 in0.0 mm 0.00 in0.0 mm
03:58 PM 86.7°F30.4°C 70.9°F21.6°C 59% 3.0 mph W4.8 kmh W 6.0 mph9.7 kmh 29.95 in1014.2 mb 0.00 in0.0 mm 0.00 in0.0 mm 0.00 in0.0 mm
04:03 PM 86.5°F30.3°C 70.5°F21.4°C 59% 3.2 mph W5.1 kmh W 7.0 mph11.3 kmh 29.95 in1014.2 mb 0.00 in0.0 mm 0.00 in0.0 mm 0.00 in0.0 mm
04:08 PM 86.5°F30.3°C 71.2°F21.8°C 60% 1.1 mph SSW1.8 kmh SSW 7.0 mph11.3 kmh 29.94 in1013.9 mb 0.00 in0.0 mm 0.00 in0.0 mm 0.00 in0.0 mm
04:13 PM 87.1°F30.6°C 71.8°F22.1°C 60% 1.8 mph NNE2.9 kmh NNE 7.0 mph11.3 kmh 29.94 in1013.9 mb 0.00 in0.0 mm 0.00 in0.0 mm 0.00 in0.0 mm
04:18 PM 87.9°F31.1°C 73.1°F22.8°C 61% 1.5 mph N2.4 kmh N 7.0 mph11.3 kmh 29.94 in1013.9 mb 0.00 in0.0 mm 0.00 in0.0 mm 0.00 in0.0 mm
04:23 PM 88.0°F31.1°C 72.7°F22.6°C 60% 1.7 mph NW2.7 kmh NW 7.0 mph11.3 kmh 29.93 in1013.5 mb 0.00 in0.0 mm 0.00 in0.0 mm 0.00 in0.0 mm
04:28 PM 88.4°F31.3°C 72.0°F22.2°C 58% 2.3 mph N3.7 kmh N 6.0 mph9.7 kmh 29.93 in1013.5 mb 0.00 in0.0 mm 0.00 in0.0 mm 0.00 in0.0 mm
04:33 PM 87.8°F31.0°C 71.5°F21.9°C 58% 3.1 mph WNW5.0 kmh WNW 8.0 mph12.9 kmh 29.93 in1013.5 mb 0.00 in0.0 mm 0.00 in0.0 mm 0.00 in0.0 mm
04:38 PM 87.7°F30.9°C 71.9°F22.2°C 59% 2.8 mph NNW4.5 kmh NNW 8.0 mph12.9 kmh 29.93 in1013.5 mb 0.00 in0.0 mm 0.00 in0.0 mm 0.00 in0.0 mm
04:43 PM 87.6°F30.9°C 71.5°F21.9°C 59% 3.7 mph NW6.0 kmh NW 8.0 mph12.9 kmh 29.93 in1013.5 mb 0.00 in0.0 mm 0.00 in0.0 mm 0.00 in0.0 mm
04:48 PM 87.5°F30.8°C 72.2°F22.3°C 60% 3.7 mph NW6.0 kmh NW 8.0 mph12.9 kmh 29.93 in1013.5 mb 0.00 in0.0 mm 0.00 in0.0 mm 0.00 in0.0 mm
04:53 PM 87.5°F30.8°C 71.2°F21.8°C 58% 3.1 mph NW5.0 kmh NW 8.0 mph12.9 kmh 29.93 in1013.5 mb 0.00 in0.0 mm 0.00 in0.0 mm 0.00 in0.0 mm
04:58 PM 87.4°F30.8°C 71.1°F21.7°C 58% 3.2 mph NNW5.1 kmh NNW 7.0 mph11.3 kmh 29.93 in1013.5 mb 0.00 in0.0 mm 0.00 in0.0 mm 0.00 in0.0 mm
05:03 PM 87.2°F30.7°C 70.4°F21.3°C 57% 2.5 mph N4.0 kmh N 7.0 mph11.3 kmh 29.93 in1013.5 mb 0.00 in0.0 mm 0.00 in0.0 mm 0.00 in0.0 mm
05:08 PM 86.9°F30.5°C 70.6°F21.4°C 58% 2.1 mph NNW3.4 kmh NNW 8.0 mph12.9 kmh 29.93 in1013.5 mb 0.00 in0.0 mm 0.00 in0.0 mm 0.00 in0.0 mm
05:13 PM 87.0°F30.6°C 70.2°F21.2°C 57% 3.6 mph NW5.8 kmh NW 8.0 mph12.9 kmh 29.93 in1013.5 mb 0.00 in0.0 mm 0.00 in0.0 mm 0.00 in0.0 mm
05:18 PM 86.9°F30.5°C 70.1°F21.2°C 57% 2.3 mph NW3.7 kmh NW 8.0 mph12.9 kmh 29.93 in1013.5 mb 0.00 in0.0 mm 0.00 in0.0 mm 0.00 in0.0 mm
05:23 PM 87.2°F30.7°C 70.9°F21.6°C 58% 2.3 mph NE3.7 kmh NE 8.0 mph12.9 kmh 29.93 in1013.5 mb 0.00 in0.0 mm 0.00 in0.0 mm 0.00 in0.0 mm
05:28 PM 87.0°F30.6°C 70.7°F21.5°C 58% 2.4 mph NNW3.9 kmh NNW 7.0 mph11.3 kmh 29.93 in1013.5 mb 0.00 in0.0 mm 0.00 in0.0 mm 0.00 in0.0 mm
05:33 PM 86.9°F30.5°C 69.0°F20.6°C 55% 3.5 mph WNW5.6 kmh WNW 9.0 mph14.5 kmh 29.93 in1013.5 mb 0.00 in0.0 mm 0.00 in0.0 mm 0.00 in0.0 mm
05:38 PM 86.8°F30.4°C 69.5°F20.8°C 56% 2.3 mph NNW3.7 kmh NNW 9.0 mph14.5 kmh 29.93 in1013.5 mb 0.00 in0.0 mm 0.00 in0.0 mm 0.00 in0.0 mm
05:43 PM 86.6°F30.3°C 70.3°F21.3°C 58% 2.2 mph NNE3.5 kmh NNE 9.0 mph14.5 kmh 29.93 in1013.5 mb 0.00 in0.0 mm 0.00 in0.0 mm 0.00 in0.0 mm
05:48 PM 86.5°F30.3°C 70.0°F21.1°C 58% 1.9 mph NNE3.1 kmh NNE 9.0 mph14.5 kmh 29.93 in1013.5 mb 0.00 in0.0 mm 0.00 in0.0 mm 0.00 in0.0 mm
05:53 PM 86.6°F30.3°C 71.8°F22.1°C 61% 2.0 mph N3.2 kmh N 6.0 mph9.7 kmh 29.93 in1013.5 mb 0.00 in0.0 mm 0.00 in0.0 mm 0.00 in0.0 mm
05:58 PM 86.4°F30.2°C 72.6°F22.6°C 63% 1.6 mph NNE2.6 kmh NNE 6.0 mph9.7 kmh 29.93 in1013.5 mb 0.00 in0.0 mm 0.00 in0.0 mm 0.00 in0.0 mm
06:03 PM 86.3°F30.2°C 73.0°F22.8°C 64% 1.0 mph NNE1.6 kmh NNE 6.0 mph9.7 kmh 29.94 in1013.9 mb 0.00 in0.0 mm 0.00 in0.0 mm 0.00 in0.0 mm
06:08 PM 86.2°F30.1°C 72.9°F22.7°C 64% 1.2 mph NW1.9 kmh NW 6.0 mph9.7 kmh 29.94 in1013.9 mb 0.00 in0.0 mm 0.00 in0.0 mm 0.00 in0.0 mm
06:13 PM 86.3°F30.2°C 73.0°F22.8°C 64% 1.9 mph NNE3.1 kmh NNE 6.0 mph9.7 kmh 29.94 in1013.9 mb 0.00 in0.0 mm 0.00 in0.0 mm 0.00 in0.0 mm
06:18 PM 86.1°F30.1°C 72.3°F22.4°C 63% 1.4 mph NNE2.3 kmh NNE 6.0 mph9.7 kmh 29.94 in1013.9 mb 0.00 in0.0 mm 0.00 in0.0 mm 0.00 in0.0 mm
06:23 PM 86.1°F30.1°C 72.0°F22.2°C 63% 2.1 mph N3.4 kmh N 7.0 mph11.3 kmh 29.94 in1013.9 mb 0.00 in0.0 mm 0.00 in0.0 mm 0.00 in0.0 mm
06:28 PM 85.8°F29.9°C 72.0°F22.2°C 63% 2.8 mph NNE4.5 kmh NNE 7.0 mph11.3 kmh 29.94 in1013.9 mb 0.00 in0.0 mm 0.00 in0.0 mm 0.00 in0.0 mm
06:33 PM 85.4°F29.7°C 71.6°F22.0°C 63% 2.3 mph NNE3.7 kmh NNE 7.0 mph11.3 kmh 29.94 in1013.9 mb 0.00 in0.0 mm 0.00 in0.0 mm 0.00 in0.0 mm
06:38 PM 85.2°F29.6°C 71.2°F21.8°C 63% 1.5 mph NNE2.4 kmh NNE 8.0 mph12.9 kmh 29.94 in1013.9 mb 0.00 in0.0 mm 0.00 in0.0 mm 0.00 in0.0 mm
06:43 PM 85.1°F29.5°C 71.5°F21.9°C 64% 1.6 mph NE2.6 kmh NE 8.0 mph12.9 kmh 29.93 in1013.5 mb 0.00 in0.0 mm 0.00 in0.0 mm 0.00 in0.0 mm
06:48 PM 84.8°F29.3°C 71.1°F21.7°C 63% 2.6 mph NNE4.2 kmh NNE 8.0 mph12.9 kmh 29.93 in1013.5 mb 0.00 in0.0 mm 0.00 in0.0 mm 0.00 in0.0 mm
06:53 PM 84.6°F29.2°C 70.9°F21.6°C 63% 2.2 mph NNE3.5 kmh NNE 8.0 mph12.9 kmh 29.93 in1013.5 mb 0.00 in0.0 mm 0.00 in0.0 mm 0.00 in0.0 mm
06:58 PM 84.6°F29.2°C 71.4°F21.9°C 64% 1.7 mph NNE2.7 kmh NNE 7.0 mph11.3 kmh 29.93 in1013.5 mb 0.00 in0.0 mm 0.00 in0.0 mm 0.00 in0.0 mm
07:03 PM 84.3°F29.1°C 70.1°F21.2°C 62% 2.4 mph N3.9 kmh N 6.0 mph9.7 kmh 29.93 in1013.5 mb 0.00 in0.0 mm 0.00 in0.0 mm 0.00 in0.0 mm
07:08 PM 84.2°F29.0°C 70.0°F21.1°C 62% 1.7 mph N2.7 kmh N 8.0 mph12.9 kmh 29.93 in1013.5 mb 0.00 in0.0 mm 0.00 in0.0 mm 0.00 in0.0 mm
07:13 PM 84.1°F28.9°C 69.9°F21.1°C 62% 1.7 mph N2.7 kmh N 8.0 mph12.9 kmh 29.93 in1013.5 mb 0.00 in0.0 mm 0.00 in0.0 mm 0.00 in0.0 mm
07:18 PM 83.9°F28.8°C 69.5°F20.8°C 62% 1.2 mph N1.9 kmh N 8.0 mph12.9 kmh 29.92 in1013.2 mb 0.00 in0.0 mm 0.00 in0.0 mm 0.00 in0.0 mm
07:23 PM 83.9°F28.8°C 70.2°F21.2°C 63% 1.3 mph NE2.1 kmh NE 8.0 mph12.9 kmh 29.92 in1013.2 mb 0.00 in0.0 mm 0.00 in0.0 mm 0.00 in0.0 mm
07:28 PM 83.7°F28.7°C 70.0°F21.1°C 63% 1.2 mph N1.9 kmh N 6.0 mph9.7 kmh 29.92 in1013.2 mb 0.00 in0.0 mm 0.00 in0.0 mm 0.00 in0.0 mm
07:33 PM 83.6°F28.7°C 70.4°F21.3°C 64% 3.6 mph NE5.8 kmh NE 7.0 mph11.3 kmh 29.92 in1013.2 mb 0.00 in0.0 mm 0.00 in0.0 mm 0.00 in0.0 mm
07:38 PM 83.2°F28.4°C 71.4°F21.9°C 67% 1.9 mph NNE3.1 kmh NNE 8.0 mph12.9 kmh 29.93 in1013.5 mb 0.00 in0.0 mm 0.00 in0.0 mm 0.00 in0.0 mm
07:43 PM 82.8°F28.2°C 71.8°F22.1°C 69% 1.4 mph NE2.3 kmh NE 8.0 mph12.9 kmh 29.93 in1013.5 mb 0.00 in0.0 mm 0.00 in0.0 mm 0.00 in0.0 mm
07:48 PM 82.7°F28.2°C 71.9°F22.2°C 70% Calm Calm 8.0 mph12.9 kmh 29.93 in1013.5 mb 0.00 in0.0 mm 0.00 in0.0 mm 0.00 in0.0 mm
07:53 PM 82.6°F28.1°C 72.1°F22.3°C 70% 1.0 mph E1.6 kmh E 5.0 mph8.0 kmh 29.93 in1013.5 mb 0.00 in0.0 mm 0.00 in0.0 mm 0.00 in0.0 mm
07:58 PM 82.4°F28.0°C 71.9°F22.2°C 70% 2.8 mph SW4.5 kmh SW 6.0 mph9.7 kmh 29.93 in1013.5 mb 0.00 in0.0 mm 0.00 in0.0 mm 0.00 in0.0 mm
08:03 PM 81.2°F27.3°C 71.7°F22.1°C 73% 1.0 mph SE1.6 kmh SE 6.0 mph9.7 kmh 29.93 in1013.5 mb 0.00 in0.0 mm 0.00 in0.0 mm 0.00 in0.0 mm
08:08 PM 80.4°F26.9°C 71.9°F22.2°C 75% Calm Calm 6.0 mph9.7 kmh 29.93 in1013.5 mb 0.00 in0.0 mm 0.00 in0.0 mm 0.00 in0.0 mm
08:12 PM 80.0°F26.7°C 71.9°F22.2°C 76% 1.5 mph WSW2.4 kmh WSW 6.0 mph9.7 kmh 29.93 in1013.5 mb 0.00 in0.0 mm 0.00 in0.0 mm 0.00 in0.0 mm
08:17 PM 79.3°F26.3°C 72.0°F22.2°C 78% Calm Calm 5.0 mph8.0 kmh 29.93 in1013.5 mb 0.00 in0.0 mm 0.00 in0.0 mm 0.00 in0.0 mm
08:22 PM 78.9°F26.1°C 71.5°F21.9°C 78% Calm Calm 2.0 mph3.2 kmh 29.93 in1013.5 mb 0.00 in0.0 mm 0.00 in0.0 mm 0.00 in0.0 mm
08:27 PM 78.5°F25.8°C 71.6°F22.0°C 79% Calm Calm 2.0 mph3.2 kmh 29.93 in1013.5 mb 0.00 in0.0 mm 0.00 in0.0 mm 0.00 in0.0 mm
08:32 PM 78.2°F25.7°C 71.6°F22.0°C 80% Calm Calm -- 29.93 in1013.5 mb 0.00 in0.0 mm 0.00 in0.0 mm 0.00 in0.0 mm
08:37 PM 78.0°F25.6°C 71.8°F22.1°C 81% Calm Calm -- 29.93 in1013.5 mb 0.00 in0.0 mm 0.00 in0.0 mm 0.00 in0.0 mm
08:42 PM 77.8°F25.4°C 71.5°F21.9°C 81% Calm Calm -- 29.93 in1013.5 mb 0.00 in0.0 mm 0.00 in0.0 mm 0.00 in0.0 mm
08:47 PM 77.7°F25.4°C 71.5°F21.9°C 81% Calm Calm -- 29.93 in1013.5 mb 0.00 in0.0 mm 0.00 in0.0 mm 0.00 in0.0 mm
08:52 PM 77.5°F25.3°C 71.3°F21.8°C 81% Calm Calm -- 29.93 in1013.5 mb 0.00 in0.0 mm 0.00 in0.0 mm 0.00 in0.0 mm
08:57 PM 77.4°F25.2°C 71.2°F21.8°C 81% Calm Calm -- 29.93 in1013.5 mb 0.00 in0.0 mm 0.00 in0.0 mm 0.00 in0.0 mm
09:02 PM 77.3°F25.2°C 71.5°F21.9°C 82% Calm Calm -- 29.93 in1013.5 mb 0.00 in0.0 mm 0.00 in0.0 mm 0.00 in0.0 mm
09:07 PM 77.2°F25.1°C 71.4°F21.9°C 82% Calm Calm 1.0 mph1.6 kmh 29.93 in1013.5 mb 0.00 in0.0 mm 0.00 in0.0 mm 0.00 in0.0 mm
09:12 PM 77.0°F25.0°C 71.1°F21.7°C 82% Calm Calm 1.0 mph1.6 kmh 29.93 in1013.5 mb 0.00 in0.0 mm 0.00 in0.0 mm 0.00 in0.0 mm
09:17 PM 76.8°F24.9°C 71.3°F21.8°C 83% 1.0 mph SW1.6 kmh SW 1.0 mph1.6 kmh 29.93 in1013.5 mb 0.00 in0.0 mm 0.00 in0.0 mm 0.00 in0.0 mm
09:22 PM 76.5°F24.7°C 70.9°F21.6°C 83% Calm Calm 1.0 mph1.6 kmh 29.93 in1013.5 mb 0.00 in0.0 mm 0.00 in0.0 mm 0.00 in0.0 mm
09:27 PM 76.4°F24.7°C 71.3°F21.8°C 84% Calm Calm 1.0 mph1.6 kmh 29.93 in1013.5 mb 0.00 in0.0 mm 0.00 in0.0 mm 0.00 in0.0 mm
09:32 PM 76.1°F24.5°C 71.3°F21.8°C 85% Calm Calm 2.0 mph3.2 kmh 29.94 in1013.9 mb 0.00 in0.0 mm 0.00 in0.0 mm 0.00 in0.0 mm
09:37 PM 75.8°F24.3°C 71.3°F21.8°C 86% Calm Calm 2.0 mph3.2 kmh 29.94 in1013.9 mb 0.00 in0.0 mm 0.00 in0.0 mm 0.00 in0.0 mm
09:42 PM 75.6°F24.2°C 71.1°F21.7°C 86% 1.0 mph SW1.6 kmh SW 2.0 mph3.2 kmh 29.94 in1013.9 mb 0.00 in0.0 mm 0.00 in0.0 mm 0.00 in0.0 mm
09:47 PM 75.6°F24.2°C 71.1°F21.7°C 86% 1.0 mph SW1.6 kmh SW 2.0 mph3.2 kmh 29.94 in1013.9 mb 0.00 in0.0 mm 0.00 in0.0 mm 0.00 in0.0 mm
09:52 PM 75.4°F24.1°C 70.6°F21.4°C 85% 3.3 mph SSW5.3 kmh SSW 5.0 mph8.0 kmh 29.94 in1013.9 mb 0.00 in0.0 mm 0.00 in0.0 mm 0.00 in0.0 mm
09:57 PM 75.1°F23.9°C 70.7°F21.5°C 86% Calm Calm 5.0 mph8.0 kmh 29.94 in1013.9 mb 0.00 in0.0 mm 0.00 in0.0 mm 0.00 in0.0 mm
10:02 PM 75.0°F23.9°C 70.9°F21.6°C 87% Calm Calm 5.0 mph8.0 kmh 29.94 in1013.9 mb 0.00 in0.0 mm 0.00 in0.0 mm 0.00 in0.0 mm
10:07 PM 74.9°F23.8°C 70.8°F21.6°C 87% Calm Calm 5.0 mph8.0 kmh 29.94 in1013.9 mb 0.00 in0.0 mm 0.00 in0.0 mm 0.00 in0.0 mm
10:12 PM 74.8°F23.8°C 70.7°F21.5°C 87% Calm Calm 1.0 mph1.6 kmh 29.94 in1013.9 mb 0.00 in0.0 mm 0.00 in0.0 mm 0.00 in0.0 mm
10:17 PM 74.8°F23.8°C 71.0°F21.7°C 88% Calm Calm -- 29.94 in1013.9 mb 0.00 in0.0 mm 0.00 in0.0 mm 0.00 in0.0 mm
10:22 PM 74.7°F23.7°C 70.9°F21.6°C 88% Calm Calm -- 29.94 in1013.9 mb 0.00 in0.0 mm 0.00 in0.0 mm 0.00 in0.0 mm
10:27 PM 74.6°F23.7°C 70.8°F21.6°C 88% Calm Calm -- 29.94 in1013.9 mb 0.00 in0.0 mm 0.00 in0.0 mm 0.00 in0.0 mm
10:32 PM 74.4°F23.6°C 70.9°F21.6°C 89% 1.0 mph SSW1.6 kmh SSW 1.0 mph1.6 kmh 29.94 in1013.9 mb 0.00 in0.0 mm 0.00 in0.0 mm 0.00 in0.0 mm
10:37 PM 74.4°F23.6°C 70.9°F21.6°C 89% 1.0 mph S1.6 kmh S 1.0 mph1.6 kmh 29.95 in1014.2 mb 0.00 in0.0 mm 0.00 in0.0 mm 0.00 in0.0 mm
10:42 PM 74.5°F23.6°C 71.0°F21.7°C 89% 1.8 mph SE2.9 kmh SE 7.0 mph11.3 kmh 29.95 in1014.2 mb 0.00 in0.0 mm 0.00 in0.0 mm 0.00 in0.0 mm
10:47 PM 74.6°F23.7°C 71.1°F21.7°C 89% 2.1 mph SSE3.4 kmh SSE 7.0 mph11.3 kmh 29.95 in1014.2 mb 0.00 in0.0 mm 0.00 in0.0 mm 0.00 in0.0 mm
10:52 PM 74.7°F23.7°C 71.2°F21.8°C 89% 2.5 mph SE4.0 kmh SE 7.0 mph11.3 kmh 29.95 in1014.2 mb 0.00 in0.0 mm 0.00 in0.0 mm 0.00 in0.0 mm
10:57 PM 74.8°F23.8°C 71.3°F21.8°C 89% 3.7 mph SE6.0 kmh SE 7.0 mph11.3 kmh 29.95 in1014.2 mb 0.00 in0.0 mm 0.00 in0.0 mm 0.00 in0.0 mm
11:02 PM 74.8°F23.8°C 71.3°F21.8°C 89% 1.9 mph S3.1 kmh S 7.0 mph11.3 kmh 29.95 in1014.2 mb 0.00 in0.0 mm 0.00 in0.0 mm 0.00 in0.0 mm
11:07 PM 74.8°F23.8°C 71.3°F21.8°C 89% 1.0 mph SE1.6 kmh SE 7.0 mph11.3 kmh 29.95 in1014.2 mb 0.00 in0.0 mm 0.00 in0.0 mm 0.00 in0.0 mm
11:12 PM 74.8°F23.8°C 71.3°F21.8°C 89% 1.4 mph SSE2.3 kmh SSE 7.0 mph11.3 kmh 29.95 in1014.2 mb 0.00 in0.0 mm 0.00 in0.0 mm 0.00 in0.0 mm
11:17 PM 74.7°F23.7°C 71.2°F21.8°C 89% 1.8 mph SSW2.9 kmh SSW 5.0 mph8.0 kmh 29.95 in1014.2 mb 0.00 in0.0 mm 0.00 in0.0 mm 0.00 in0.0 mm
11:22 PM 74.6°F23.7°C 71.5°F21.9°C 90% 1.3 mph S2.1 kmh S 4.0 mph6.4 kmh 29.95 in1014.2 mb 0.00 in0.0 mm 0.00 in0.0 mm 0.00 in0.0 mm
11:27 PM 74.3°F23.5°C 71.5°F21.9°C 91% 1.3 mph SSE2.1 kmh SSE 4.0 mph6.4 kmh 29.95 in1014.2 mb 0.00 in0.0 mm 0.00 in0.0 mm 0.00 in0.0 mm
11:32 PM 74.1°F23.4°C 71.3°F21.8°C 91% 1.9 mph S3.1 kmh S 5.0 mph8.0 kmh 29.95 in1014.2 mb 0.00 in0.0 mm 0.00 in0.0 mm 0.00 in0.0 mm
11:37 PM 74.0°F23.3°C 71.2°F21.8°C 91% 1.4 mph SE2.3 kmh SE 5.0 mph8.0 kmh 29.95 in1014.2 mb 0.00 in0.0 mm 0.00 in0.0 mm 0.00 in0.0 mm
11:42 PM 73.9°F23.3°C 71.1°F21.7°C 91% 1.1 mph S1.8 kmh S 5.0 mph8.0 kmh 29.96 in1014.6 mb 0.00 in0.0 mm 0.00 in0.0 mm 0.00 in0.0 mm
11:47 PM 73.8°F23.2°C 71.0°F21.7°C 91% Calm Calm 5.0 mph8.0 kmh 29.95 in1014.2 mb 0.00 in0.0 mm 0.00 in0.0 mm 0.00 in0.0 mm
11:52 PM 73.8°F23.2°C 71.0°F21.7°C 91% Calm Calm 4.0 mph6.4 kmh 29.96 in1014.6 mb 0.00 in0.0 mm 0.00 in0.0 mm 0.00 in0.0 mm
11:57 PM 73.8°F23.2°C 71.0°F21.7°C 91% 1.0 mph SW1.6 kmh SW 3.0 mph4.8 kmh 29.96 in1014.6 mb 0.00 in0.0 mm 0.00 in0.0 mm 0.00 in0.0 mm